sensor_id;sensor_type;location;lat;lon;timestamp;temperature;humidity
57719;DHT22;43561;50.090;18.522;2023-07-30T00:09:31;19.40;99.90
57719;DHT22;43561;50.090;18.522;2023-07-30T00:19:40;19.20;99.90
57719;DHT22;43561;50.090;18.522;2023-07-30T00:29:42;19.20;99.90
57719;DHT22;43561;50.090;18.522;2023-07-30T00:39:46;19.10;99.90
57719;DHT22;43561;50.090;18.522;2023-07-30T00:49:49;19.00;99.90
57719;DHT22;43561;50.090;18.522;2023-07-30T00:59:52;18.90;99.90
57719;DHT22;43561;50.090;18.522;2023-07-30T01:09:55;18.80;99.90
57719;DHT22;43561;50.090;18.522;2023-07-30T01:19:58;18.60;99.90
57719;DHT22;43561;50.090;18.522;2023-07-30T01:30:25;18.50;99.90
57719;DHT22;43561;50.090;18.522;2023-07-30T01:40:29;18.10;99.90
57719;DHT22;43561;50.090;18.522;2023-07-30T01:50:31;17.90;99.90
57719;DHT22;43561;50.090;18.522;2023-07-30T02:01:00;17.80;99.90
57719;DHT22;43561;50.090;18.522;2023-07-30T02:11:02;17.40;99.90
57719;DHT22;43561;50.090;18.522;2023-07-30T02:21:04;17.30;99.90
57719;DHT22;43561;50.090;18.522;2023-07-30T02:31:06;17.20;99.90
57719;DHT22;43561;50.090;18.522;2023-07-30T02:41:08;17.10;99.90
57719;DHT22;43561;50.090;18.522;2023-07-30T03:02:14;16.90;99.90
57719;DHT22;43561;50.090;18.522;2023-07-30T03:12:22;16.70;99.90
57719;DHT22;43561;50.090;18.522;2023-07-30T03:22:24;16.60;99.90
57719;DHT22;43561;50.090;18.522;2023-07-30T03:32:26;16.40;99.90
57719;DHT22;43561;50.090;18.522;2023-07-30T03:42:29;16.50;99.90
57719;DHT22;43561;50.090;18.522;2023-07-30T03:52:31;16.50;99.90
57719;DHT22;43561;50.090;18.522;2023-07-30T04:02:52;16.50;99.90
57719;DHT22;43561;50.090;18.522;2023-07-30T04:13:04;16.60;99.90
57719;DHT22;43561;50.090;18.522;2023-07-30T04:56:32;19.60;99.90
57719;DHT22;43561;50.090;18.522;2023-07-30T05:07:30;21.00;99.90
57719;DHT22;43561;50.090;18.522;2023-07-30T05:18:29;21.90;99.90
57719;DHT22;43561;50.090;18.522;2023-07-30T05:28:49;23.30;99.90
57719;DHT22;43561;50.090;18.522;2023-07-30T05:38:58;23.00;99.90
57719;DHT22;43561;50.090;18.522;2023-07-30T05:49:00;23.10;99.90
57719;DHT22;43561;50.090;18.522;2023-07-30T05:59:02;23.50;99.90
57719;DHT22;43561;50.090;18.522;2023-07-30T06:09:04;23.00;99.90
57719;DHT22;43561;50.090;18.522;2023-07-30T06:19:06;24.60;99.90
57719;DHT22;43561;50.090;18.522;2023-07-30T06:29:08;24.80;99.90
57719;DHT22;43561;50.090;18.522;2023-07-30T06:39:10;25.40;99.90
57719;DHT22;43561;50.090;18.522;2023-07-30T06:49:12;25.80;97.40
57719;DHT22;43561;50.090;18.522;2023-07-30T06:59:14;25.30;97.50
57719;DHT22;43561;50.090;18.522;2023-07-30T07:09:16;26.00;95.30
57719;DHT22;43561;50.090;18.522;2023-07-30T07:19:18;24.70;94.50
57719;DHT22;43561;50.090;18.522;2023-07-30T07:29:20;25.70;95.20
57719;DHT22;43561;50.090;18.522;2023-07-30T07:39:22;25.50;94.70
57719;DHT22;43561;50.090;18.522;2023-07-30T07:49:23;26.40;90.20
57719;DHT22;43561;50.090;18.522;2023-07-30T07:59:25;25.90;90.30
57719;DHT22;43561;50.090;18.522;2023-07-30T08:09:28;26.10;91.30
57719;DHT22;43561;50.090;18.522;2023-07-30T08:19:29;26.10;87.90
57719;DHT22;43561;50.090;18.522;2023-07-30T08:29:31;25.70;90.60
57719;DHT22;43561;50.090;18.522;2023-07-30T08:39:33;26.00;85.10
57719;DHT22;43561;50.090;18.522;2023-07-30T08:49:35;26.00;91.50
57719;DHT22;43561;50.090;18.522;2023-07-30T08:59:41;25.80;90.50
57719;DHT22;43561;50.090;18.522;2023-07-30T09:09:44;25.80;86.80
57719;DHT22;43561;50.090;18.522;2023-07-30T09:19:47;25.80;90.40
57719;DHT22;43561;50.090;18.522;2023-07-30T09:29:54;25.90;85.30
57719;DHT22;43561;50.090;18.522;2023-07-30T09:39:57;26.00;82.30
57719;DHT22;43561;50.090;18.522;2023-07-30T09:49:59;25.40;88.40
57719;DHT22;43561;50.090;18.522;2023-07-30T10:00:02;25.80;82.80
57719;DHT22;43561;50.090;18.522;2023-07-30T10:10:06;25.20;80.60
57719;DHT22;43561;50.090;18.522;2023-07-30T10:20:28;24.70;86.20
57719;DHT22;43561;50.090;18.522;2023-07-30T10:30:32;25.60;82.30
57719;DHT22;43561;50.090;18.522;2023-07-30T10:40:39;25.80;79.50
57719;DHT22;43561;50.090;18.522;2023-07-30T10:50:45;25.80;74.90
57719;DHT22;43561;50.090;18.522;2023-07-30T11:00:48;25.80;77.20
57719;DHT22;43561;50.090;18.522;2023-07-30T11:10:51;25.80;74.90
57719;DHT22;43561;50.090;18.522;2023-07-30T11:21:04;25.80;78.10
57719;DHT22;43561;50.090;18.522;2023-07-30T11:41:57;25.70;77.80
57719;DHT22;43561;50.090;18.522;2023-07-30T11:52:08;25.10;79.60
57719;DHT22;43561;50.090;18.522;2023-07-30T12:02:17;25.70;81.80
57719;DHT22;43561;50.090;18.522;2023-07-30T12:12:25;25.50;86.00
57719;DHT22;43561;50.090;18.522;2023-07-30T12:22:37;25.60;83.80
57719;DHT22;43561;50.090;18.522;2023-07-30T12:32:42;25.40;81.00
57719;DHT22;43561;50.090;18.522;2023-07-30T12:42:44;25.70;78.70
57719;DHT22;43561;50.090;18.522;2023-07-30T12:52:46;25.80;74.80
57719;DHT22;43561;50.090;18.522;2023-07-30T13:02:48;26.10;75.10
57719;DHT22;43561;50.090;18.522;2023-07-30T13:13:05;26.40;71.90
57719;DHT22;43561;50.090;18.522;2023-07-30T13:23:07;26.60;71.00
57719;DHT22;43561;50.090;18.522;2023-07-30T13:33:09;26.20;71.70
57719;DHT22;43561;50.090;18.522;2023-07-30T13:43:11;25.90;71.90
57719;DHT22;43561;50.090;18.522;2023-07-30T13:53:13;25.60;73.90
57719;DHT22;43561;50.090;18.522;2023-07-30T14:03:15;25.50;76.40
57719;DHT22;43561;50.090;18.522;2023-07-30T14:13:17;25.20;82.90
57719;DHT22;43561;50.090;18.522;2023-07-30T14:23:19;25.40;80.80
57719;DHT22;43561;50.090;18.522;2023-07-30T14:33:21;25.50;85.50
57719;DHT22;43561;50.090;18.522;2023-07-30T14:43:25;25.40;80.80
57719;DHT22;43561;50.090;18.522;2023-07-30T14:53:27;25.40;83.80
57719;DHT22;43561;50.090;18.522;2023-07-30T15:03:29;25.30;90.60
57719;DHT22;43561;50.090;18.522;2023-07-30T15:13:31;25.00;88.10
57719;DHT22;43561;50.090;18.522;2023-07-30T15:23:33;24.50;85.00
57719;DHT22;43561;50.090;18.522;2023-07-30T15:33:35;24.20;86.70
57719;DHT22;43561;50.090;18.522;2023-07-30T15:43:37;24.20;89.00
57719;DHT22;43561;50.090;18.522;2023-07-30T15:53:39;24.10;88.90
57719;DHT22;43561;50.090;18.522;2023-07-30T16:03:41;24.00;91.00
57719;DHT22;43561;50.090;18.522;2023-07-30T16:13:43;23.70;93.20
57719;DHT22;43561;50.090;18.522;2023-07-30T16:23:45;24.00;92.20
57719;DHT22;43561;50.090;18.522;2023-07-30T16:33:53;24.00;91.60
57719;DHT22;43561;50.090;18.522;2023-07-30T16:44:10;24.20;91.90
57719;DHT22;43561;50.090;18.522;2023-07-30T16:54:12;24.00;91.80
57719;DHT22;43561;50.090;18.522;2023-07-30T17:04:16;23.80;90.40
57719;DHT22;43561;50.090;18.522;2023-07-30T17:14:24;23.70;91.80
57719;DHT22;43561;50.090;18.522;2023-07-30T17:24:36;23.50;94.90
57719;DHT22;43561;50.090;18.522;2023-07-30T17:34:43;23.10;97.30
57719;DHT22;43561;50.090;18.522;2023-07-30T17:44:49;23.10;98.90
57719;DHT22;43561;50.090;18.522;2023-07-30T17:54:51;22.80;99.90
57719;DHT22;43561;50.090;18.522;2023-07-30T18:04:53;22.40;99.90
57719;DHT22;43561;50.090;18.522;2023-07-30T18:14:59;22.20;99.90
57719;DHT22;43561;50.090;18.522;2023-07-30T18:25:01;21.90;99.90
57719;DHT22;43561;50.090;18.522;2023-07-30T18:35:10;21.60;99.90
57719;DHT22;43561;50.090;18.522;2023-07-30T18:57:14;21.10;99.90
57719;DHT22;43561;50.090;18.522;2023-07-30T21:10:48;19.90;99.90
57719;DHT22;43561;50.090;18.522;2023-07-30T21:20:56;19.60;99.90
57719;DHT22;43561;50.090;18.522;2023-07-30T21:31:20;19.50;99.90
57719;DHT22;43561;50.090;18.522;2023-07-30T21:41:30;19.30;99.90
57719;DHT22;43561;50.090;18.522;2023-07-30T21:51:32;19.30;99.90
57719;DHT22;43561;50.090;18.522;2023-07-30T22:01:34;19.30;99.90
57719;DHT22;43561;50.090;18.522;2023-07-30T22:11:36;19.10;99.90
57719;DHT22;43561;50.090;18.522;2023-07-30T22:21:40;19.10;99.90
57719;DHT22;43561;50.090;18.522;2023-07-30T22:31:42;19.10;99.90
57719;DHT22;43561;50.090;18.522;2023-07-30T22:41:44;19.20;99.90
57719;DHT22;43561;50.090;18.522;2023-07-30T23:04:06;18.80;99.90
57719;DHT22;43561;50.090;18.522;2023-07-30T23:14:08;18.50;99.90
57719;DHT22;43561;50.090;18.522;2023-07-30T23:35:15;18.10;99.90
57719;DHT22;43561;50.090;18.522;2023-07-30T23:45:28;18.10;99.90
57719;DHT22;43561;50.090;18.522;2023-07-30T23:55:30;17.70;99.90
